createdAt,value
2019-03-12T00:01:28.495Z,91.20
2019-03-12T00:04:13.738Z,91.20
2019-03-12T00:06:59.843Z,91.20
2019-03-12T00:09:45.555Z,91.20
2019-03-12T00:12:30.473Z,91.10
2019-03-12T00:15:15.385Z,91.20
2019-03-12T00:18:00.773Z,91.10
2019-03-12T00:20:46.553Z,91.00
2019-03-12T00:23:32.948Z,90.80
2019-03-12T00:26:19.833Z,90.80
2019-03-12T00:29:04.872Z,90.70
2019-03-12T00:31:50.313Z,90.50
2019-03-12T00:34:35.428Z,90.40
2019-03-12T00:37:20.770Z,90.40
2019-03-12T00:40:08.323Z,90.30
2019-03-12T00:42:53.979Z,90.10
2019-03-12T00:45:39.906Z,90.20
2019-03-12T00:48:25.274Z,90.10
2019-03-12T00:51:10.395Z,90.00
2019-03-12T00:53:56.395Z,90.00
2019-03-12T00:56:42.996Z,90.00
2019-03-12T00:59:28.410Z,89.90
2019-03-12T01:02:13.438Z,89.90
2019-03-12T01:04:58.281Z,89.80
2019-03-12T01:07:45.508Z,89.80
2019-03-12T01:10:30.305Z,89.80
2019-03-12T01:13:16.999Z,89.80
2019-03-12T01:16:02.238Z,89.90
2019-03-12T01:18:47.715Z,89.90
2019-03-12T01:21:34.098Z,90.00
2019-03-12T01:24:19.514Z,90.00
2019-03-12T01:27:05.078Z,90.00
2019-03-12T01:29:50.694Z,90.10
2019-03-12T01:32:38.204Z,90.10
2019-03-12T01:35:23.326Z,90.10
2019-03-12T01:38:08.800Z,90.20
2019-03-12T01:40:54.218Z,90.20
2019-03-12T01:43:39.388Z,90.30
2019-03-12T01:46:24.772Z,90.30
2019-03-12T01:49:09.936Z,90.30
2019-03-12T01:51:55.400Z,90.40
2019-03-12T01:54:40.626Z,90.40
2019-03-12T01:57:27.513Z,90.50
2019-03-12T02:00:15.730Z,90.50
2019-03-12T02:03:01.498Z,90.60
2019-03-12T02:05:46.782Z,90.80
2019-03-12T02:08:31.799Z,90.60
2019-03-12T02:11:16.842Z,90.60
2019-03-12T02:14:06.219Z,90.60
2019-03-12T02:16:53.325Z,90.50
2019-03-12T02:19:38.070Z,90.50
2019-03-12T02:22:23.215Z,90.60
2019-03-12T02:25:17.022Z,90.70
2019-03-12T02:28:04.352Z,90.70
2019-03-12T02:30:49.603Z,90.60
2019-03-12T02:33:34.980Z,90.60
2019-03-12T02:36:19.804Z,90.60
2019-03-12T02:39:07.252Z,90.50
2019-03-12T02:41:52.053Z,90.50
2019-03-12T02:44:37.377Z,90.40
2019-03-12T02:47:22.512Z,90.30
2019-03-12T02:50:10.347Z,90.30
2019-03-12T02:52:55.447Z,90.30
2019-03-12T02:55:40.982Z,90.30
2019-03-12T02:58:26.257Z,90.40
2019-03-12T03:01:11.355Z,90.30
2019-03-12T03:03:56.673Z,90.30
2019-03-12T03:06:55.363Z,90.30
2019-03-12T03:09:40.622Z,90.30
2019-03-12T03:12:26.662Z,90.40
2019-03-12T03:15:15.642Z,90.40
2019-03-12T03:18:01.122Z,90.40
2019-03-12T03:20:46.203Z,90.30
2019-03-12T03:23:31.361Z,90.40
2019-03-12T03:26:16.455Z,90.30
2019-03-12T03:29:02.585Z,90.30
2019-03-12T03:31:47.655Z,90.30
2019-03-12T03:34:32.698Z,90.20
2019-03-12T03:37:18.751Z,90.20
2019-03-12T03:40:05.458Z,90.20
2019-03-12T03:42:50.619Z,90.20
2019-03-12T03:45:36.096Z,90.10
2019-03-12T03:48:21.132Z,90.10
2019-03-12T03:51:07.729Z,90.00
2019-03-12T03:53:52.871Z,90.00
2019-03-12T03:56:38.265Z,90.00
2019-03-12T03:59:23.478Z,89.80
2019-03-12T04:02:08.783Z,89.70
2019-03-12T04:04:53.891Z,89.70
2019-03-12T04:07:38.735Z,89.40
2019-03-12T04:10:24.275Z,89.40
2019-03-12T04:13:08.917Z,89.30
2019-03-12T04:15:55.084Z,89.10
2019-03-12T04:18:40.349Z,88.90
2019-03-12T04:21:25.658Z,88.80
2019-03-12T04:24:11.373Z,88.70
2019-03-12T04:26:56.291Z,88.40
2019-03-12T04:29:41.891Z,88.10
2019-03-12T04:32:26.873Z,88.00
2019-03-12T04:35:15.254Z,87.50
2019-03-12T04:38:00.624Z,87.30
2019-03-12T04:40:45.632Z,87.30
2019-03-12T04:43:31.277Z,87.10
2019-03-12T04:46:16.753Z,86.70
2019-03-12T04:49:01.771Z,86.60
2019-03-12T04:51:46.744Z,86.00
2019-03-12T04:54:32.034Z,85.90
2019-03-12T04:57:17.414Z,85.70
2019-03-12T05:00:06.409Z,85.60
2019-03-12T05:02:51.216Z,85.30
2019-03-12T05:05:36.141Z,85.10
2019-03-12T05:08:21.279Z,85.10
2019-03-12T05:11:06.423Z,85.00
2019-03-12T05:14:21.727Z,84.80
2019-03-12T05:17:07.283Z,85.20
2019-03-12T05:19:52.657Z,84.60
2019-03-12T05:22:37.748Z,84.70
2019-03-12T05:25:23.157Z,84.30
2019-03-12T05:28:08.344Z,84.10
2019-03-12T05:30:53.576Z,84.10
2019-03-12T05:33:38.876Z,83.90
2019-03-12T05:36:23.875Z,83.40
2019-03-12T05:39:11.367Z,83.30
2019-03-12T05:41:56.414Z,83.20
2019-03-12T05:44:41.660Z,83.20
2019-03-12T05:47:26.781Z,82.90
2019-03-12T05:50:15.090Z,82.50
2019-03-12T05:53:14.331Z,82.30
2019-03-12T05:55:59.233Z,82.10
2019-03-12T05:58:45.788Z,81.60
2019-03-12T06:01:30.878Z,81.00
2019-03-12T06:04:16.146Z,80.50
2019-03-12T06:07:03.528Z,79.90
2019-03-12T06:09:48.644Z,80.00
2019-03-12T06:12:33.937Z,79.50
2019-03-12T06:15:19.193Z,79.40
2019-03-12T06:18:04.394Z,79.30
2019-03-12T06:20:49.683Z,78.50
2019-03-12T06:23:36.148Z,78.10
2019-03-12T06:26:21.283Z,77.60
2019-03-12T06:29:06.351Z,77.30
2019-03-12T06:31:53.403Z,77.00
2019-03-12T06:34:42.005Z,76.80
2019-03-12T06:37:41.514Z,76.50
2019-03-12T06:40:34.528Z,76.30
2019-03-12T06:43:21.915Z,76.10
2019-03-12T06:46:26.172Z,75.80
2019-03-12T06:49:28.220Z,76.00
2019-03-12T06:52:24.160Z,75.70
2019-03-12T06:55:11.405Z,75.80
2019-03-12T06:58:00.868Z,75.60
2019-03-12T07:00:49.761Z,75.70
2019-03-12T07:03:42.591Z,75.80
2019-03-12T07:06:30.113Z,75.50
2019-03-12T07:09:17.540Z,75.30
2019-03-12T07:12:04.947Z,75.10
2019-03-12T07:14:53.623Z,74.90
2019-03-12T07:17:49.403Z,75.10
2019-03-12T07:20:45.389Z,74.50
2019-03-12T07:23:49.480Z,74.80
2019-03-12T07:26:38.633Z,74.40
2019-03-12T07:29:25.789Z,74.20
2019-03-12T07:32:15.732Z,74.00
2019-03-12T07:35:09.563Z,74.30
2019-03-12T07:37:56.940Z,74.30
2019-03-12T07:40:43.953Z,74.30
2019-03-12T07:43:30.670Z,73.90
2019-03-12T07:46:33.920Z,73.40
2019-03-12T07:49:21.709Z,73.80
2019-03-12T07:52:08.909Z,73.40
2019-03-12T07:54:56.193Z,72.80
2019-03-12T07:57:59.565Z,71.80
2019-03-12T08:00:56.454Z,71.90
2019-03-12T08:04:00.121Z,71.50
2019-03-12T08:06:47.247Z,71.90
2019-03-12T08:09:36.818Z,71.00
2019-03-12T08:12:29.838Z,70.30
2019-03-12T08:15:33.500Z,70.00
2019-03-12T08:18:20.723Z,69.20
2019-03-12T08:21:24.734Z,69.80
2019-03-12T08:24:30.900Z,68.60
2019-03-12T08:27:26.696Z,67.20
2019-03-12T08:30:16.937Z,65.20
2019-03-12T08:33:06.756Z,64.80
2019-03-12T08:36:02.601Z,64.50
2019-03-12T08:38:58.434Z,64.40
2019-03-12T08:42:04.711Z,64.90
2019-03-12T08:45:10.967Z,65.30
2019-03-12T08:47:58.413Z,64.80
2019-03-12T08:50:58.057Z,65.10
2019-03-12T08:53:48.078Z,64.90
2019-03-12T08:56:47.503Z,64.80
2019-03-12T08:59:34.689Z,64.90
2019-03-12T09:02:21.981Z,65.40
2019-03-12T09:05:09.107Z,64.50
2019-03-12T09:08:08.227Z,64.60
2019-03-12T09:11:01.223Z,64.20
2019-03-12T09:13:47.990Z,63.20
2019-03-12T09:16:37.564Z,62.60
2019-03-12T09:19:39.976Z,61.70
2019-03-12T09:22:38.964Z,61.20
2019-03-12T09:25:29.253Z,61.60
2019-03-12T09:28:21.718Z,60.30
2019-03-12T09:31:11.432Z,62.00
2019-03-12T09:33:58.395Z,61.80
2019-03-12T09:37:02.797Z,61.50
2019-03-12T09:40:04.847Z,59.90
2019-03-12T09:42:54.636Z,59.20
2019-03-12T09:45:41.973Z,60.60
2019-03-12T09:48:40.616Z,60.30
2019-03-12T09:51:27.704Z,58.80
2019-03-12T09:54:23.318Z,60.70
2019-03-12T09:57:13.215Z,58.70
2019-03-12T10:00:14.791Z,60.30
2019-03-12T10:02:54.869Z,60.80
2019-03-12T10:05:57.121Z,60.40
2019-03-12T10:09:00.729Z,61.60
2019-03-12T10:11:51.662Z,62.20
2019-03-12T10:14:52.129Z,61.80
2019-03-12T10:17:48.604Z,63.90
2019-03-12T10:20:38.549Z,62.70
2019-03-12T10:23:25.768Z,63.50
2019-03-12T10:26:12.745Z,64.10
2019-03-12T10:29:18.058Z,65.20
2019-03-12T10:32:21.281Z,66.90
2019-03-12T10:35:08.604Z,67.10
2019-03-12T10:37:59.706Z,68.20
2019-03-12T10:40:47.004Z,68.60
2019-03-12T10:43:34.225Z,69.10
2019-03-12T10:46:21.034Z,67.80
2019-03-12T10:49:06.257Z,66.10
2019-03-12T10:51:51.333Z,64.10
2019-03-12T10:54:36.811Z,62.80
2019-03-12T10:57:21.872Z,61.80
2019-03-12T11:00:15.729Z,62.40
2019-03-12T11:03:02.800Z,64.50
2019-03-12T11:05:47.987Z,63.90
2019-03-12T11:08:33.326Z,63.90
2019-03-12T11:11:18.572Z,62.80
2019-03-12T11:14:03.941Z,62.20
2019-03-12T11:16:49.118Z,60.20
2019-03-12T11:19:34.614Z,62.60
2019-03-12T11:22:19.794Z,64.10
2019-03-12T11:25:06.329Z,64.80
2019-03-12T11:27:51.550Z,65.00
2019-03-12T11:30:37.049Z,64.20
2019-03-12T11:33:23.152Z,62.40
2019-03-12T11:36:08.555Z,61.00
2019-03-12T11:38:55.068Z,61.50
2019-03-12T11:41:40.435Z,62.70
2019-03-12T11:44:25.305Z,62.60
2019-03-12T11:47:10.424Z,62.60
2019-03-12T11:49:55.971Z,62.90
2019-03-12T11:52:40.959Z,62.90
2019-03-12T11:55:26.484Z,63.60
2019-03-12T11:58:13.461Z,62.20
2019-03-12T12:01:02.692Z,63.30
2019-03-12T12:03:47.916Z,63.40
2019-03-12T12:06:34.365Z,62.70
2019-03-12T12:09:19.611Z,62.40
2019-03-12T12:12:05.310Z,61.20
2019-03-12T12:14:51.102Z,59.30
2019-03-12T12:17:36.295Z,56.00
2019-03-12T12:20:29.483Z,54.10
2019-03-12T12:23:09.025Z,54.00
2019-03-12T12:25:54.467Z,56.20
2019-03-12T12:28:39.826Z,58.10
2019-03-12T12:31:25.186Z,59.30
2019-03-12T12:34:10.296Z,58.70
2019-03-12T12:36:56.377Z,57.90
2019-03-12T12:39:41.159Z,56.70
2019-03-12T12:42:26.404Z,56.30
2019-03-12T12:45:32.244Z,55.90
2019-03-12T12:48:17.589Z,56.60
2019-03-12T12:51:03.894Z,57.60
2019-03-12T12:53:49.130Z,58.60
2019-03-12T12:56:35.416Z,58.80
2019-03-12T12:59:22.584Z,59.20
2019-03-12T13:02:09.944Z,58.70
2019-03-12T13:04:54.928Z,58.50
2019-03-12T13:07:41.312Z,57.70
2019-03-12T13:10:27.886Z,57.20
2019-03-12T13:13:12.724Z,57.40
2019-03-12T13:15:58.385Z,57.10
2019-03-12T13:18:43.111Z,56.80
2019-03-12T13:21:28.537Z,57.30
2019-03-12T13:24:14.127Z,57.00
2019-03-12T13:26:59.149Z,57.40
2019-03-12T13:29:44.616Z,56.50
2019-03-12T13:32:30.836Z,56.30
2019-03-12T13:35:17.296Z,55.50
2019-03-12T13:38:02.656Z,55.30
2019-03-12T13:40:47.901Z,56.00
2019-03-12T13:43:32.921Z,57.10
2019-03-12T13:46:18.575Z,56.70
2019-03-12T13:49:04.151Z,55.70
2019-03-12T13:51:49.571Z,54.60
2019-03-12T13:54:34.800Z,56.10
2019-03-12T13:57:20.304Z,57.40
2019-03-12T14:00:09.352Z,57.80
2019-03-12T14:02:54.465Z,58.30
2019-03-12T14:05:39.724Z,58.40
2019-03-12T14:08:25.576Z,57.20
2019-03-12T14:11:10.851Z,57.70
2019-03-12T14:13:55.773Z,59.10
2019-03-12T14:16:41.494Z,59.50
2019-03-12T14:19:27.287Z,60.00
2019-03-12T14:22:13.054Z,60.50
2019-03-12T14:24:59.953Z,59.60
2019-03-12T14:27:46.623Z,60.20
2019-03-12T14:30:32.004Z,60.30
2019-03-12T14:33:17.130Z,59.70
2019-03-12T14:36:02.252Z,59.70
2019-03-12T14:38:48.263Z,60.00
2019-03-12T14:41:34.308Z,60.00
2019-03-12T14:44:20.645Z,59.30
2019-03-12T14:47:06.346Z,59.30
2019-03-12T14:49:51.938Z,59.60
2019-03-12T14:52:37.975Z,59.40
2019-03-12T14:55:24.009Z,59.40
2019-03-12T14:58:11.097Z,59.10
2019-03-12T15:00:56.345Z,59.60
2019-03-12T15:03:41.861Z,59.80
2019-03-12T15:06:26.946Z,60.20
2019-03-12T15:09:13.719Z,59.80
2019-03-12T15:11:58.629Z,60.20
2019-03-12T15:14:45.907Z,61.00
2019-03-12T15:17:31.540Z,61.50
2019-03-12T15:20:16.774Z,62.20
2019-03-12T15:23:01.909Z,62.60
2019-03-12T15:25:47.332Z,62.80
2019-03-12T15:28:32.361Z,62.30
2019-03-12T15:31:18.142Z,62.50
2019-03-12T15:34:03.342Z,62.30
2019-03-12T15:36:50.103Z,61.90
2019-03-12T15:39:34.868Z,62.10
2019-03-12T15:42:20.078Z,62.70
2019-03-12T15:45:13.925Z,63.10
2019-03-12T15:47:59.126Z,63.40
2019-03-12T15:50:45.428Z,63.40
2019-03-12T15:53:30.596Z,63.20
2019-03-12T15:56:16.412Z,62.90
2019-03-12T15:59:01.801Z,63.50
2019-03-12T16:01:47.312Z,63.80
2019-03-12T16:04:32.725Z,64.10
2019-03-12T16:07:17.857Z,64.10
2019-03-12T16:10:14.756Z,64.20
2019-03-12T16:13:00.206Z,64.00
2019-03-12T16:15:45.563Z,63.10
2019-03-12T16:18:30.343Z,62.80
2019-03-12T16:21:15.468Z,62.40
2019-03-12T16:24:00.989Z,62.30
2019-03-12T16:26:46.454Z,62.30
2019-03-12T16:29:31.495Z,62.80
2019-03-12T16:32:16.436Z,63.20
2019-03-12T16:35:01.796Z,63.60
2019-03-12T16:37:47.244Z,64.00
2019-03-12T16:40:32.395Z,64.20
2019-03-12T16:43:17.407Z,64.70
2019-03-12T16:46:02.971Z,64.50
2019-03-12T16:48:48.178Z,64.50
2019-03-12T16:51:33.268Z,64.80
2019-03-12T16:54:19.151Z,64.90
2019-03-12T16:57:04.329Z,64.90
2019-03-12T16:59:49.176Z,65.10
2019-03-12T17:02:34.369Z,65.80
2019-03-12T17:05:19.564Z,65.90
2019-03-12T17:08:04.677Z,65.90
2019-03-12T17:10:56.843Z,66.10
2019-03-12T17:13:36.552Z,66.20
2019-03-12T17:16:21.672Z,66.60
2019-03-12T17:19:07.296Z,67.00
2019-03-12T17:21:52.394Z,67.30
2019-03-12T17:24:37.522Z,67.60
2019-03-12T17:27:22.918Z,68.10
2019-03-12T17:30:14.637Z,68.70
2019-03-12T17:32:59.778Z,68.50
2019-03-12T17:35:45.125Z,68.90
2019-03-12T17:38:45.562Z,69.20
2019-03-12T17:41:17.454Z,69.50
2019-03-12T17:44:03.115Z,69.70
2019-03-12T17:47:18.696Z,70.00
2019-03-12T17:49:36.777Z,70.40
2019-03-12T17:52:21.849Z,70.80
2019-03-12T17:55:12.847Z,71.00
2019-03-12T17:57:58.195Z,71.40
2019-03-12T18:00:44.862Z,71.70
2019-03-12T18:03:30.139Z,71.70
2019-03-12T18:06:15.343Z,72.00
2019-03-12T18:09:00.991Z,72.20
2019-03-12T18:11:47.217Z,72.30
2019-03-12T18:14:32.263Z,72.50
2019-03-12T18:17:17.677Z,72.60
2019-03-12T18:20:08.648Z,72.80
2019-03-12T18:22:54.994Z,72.90
2019-03-12T18:25:43.427Z,73.00
2019-03-12T18:28:28.623Z,73.10
2019-03-12T18:31:14.153Z,73.20
2019-03-12T18:34:00.165Z,73.20
2019-03-12T18:36:45.037Z,73.30
2019-03-12T18:39:30.085Z,73.40
2019-03-12T18:42:15.169Z,73.50
2019-03-12T18:45:00.385Z,73.70
2019-03-12T18:47:45.344Z,73.70
2019-03-12T18:50:31.323Z,73.80
2019-03-12T18:53:16.636Z,73.70
2019-03-12T18:56:03.162Z,73.80
2019-03-12T18:58:48.242Z,73.80
2019-03-12T19:01:33.268Z,73.80
2019-03-12T19:04:18.425Z,73.80
2019-03-12T19:07:03.622Z,73.80
2019-03-12T19:09:49.418Z,73.90
2019-03-12T19:12:34.816Z,74.00
2019-03-12T19:15:20.074Z,74.00
2019-03-12T19:18:05.078Z,74.20
2019-03-12T19:20:50.198Z,74.50
2019-03-12T19:23:35.378Z,74.60
2019-03-12T19:26:20.460Z,74.70
2019-03-12T19:29:05.515Z,75.20
2019-03-12T19:31:52.169Z,75.40
2019-03-12T19:34:37.399Z,75.60
2019-03-12T19:37:22.502Z,75.70
2019-03-12T19:40:14.292Z,76.30
2019-03-12T19:42:59.407Z,76.70
2019-03-12T19:45:44.386Z,76.90
2019-03-12T19:48:29.687Z,77.10
2019-03-12T19:51:14.810Z,77.40
2019-03-12T19:53:59.981Z,77.80
2019-03-12T19:56:45.277Z,78.00
2019-03-12T19:59:30.481Z,78.30
2019-03-12T20:02:16.684Z,78.60
2019-03-12T20:05:02.330Z,78.80
2019-03-12T20:07:47.494Z,79.10
2019-03-12T20:10:42.033Z,79.20
2019-03-12T20:13:43.059Z,79.40
2019-03-12T20:17:08.097Z,79.50
2019-03-12T20:20:18.094Z,79.40
2019-03-12T20:23:26.981Z,79.60
2019-03-12T20:26:25.088Z,79.80
2019-03-12T20:29:20.006Z,79.70
2019-03-12T20:32:23.575Z,79.80
2019-03-12T20:35:46.664Z,79.80
2019-03-12T20:39:01.392Z,79.90
2019-03-12T20:42:07.118Z,79.80
2019-03-12T20:45:14.062Z,79.90
2019-03-12T20:48:09.407Z,80.00
2019-03-12T20:51:32.042Z,80.20
2019-03-12T20:54:40.709Z,80.20
2019-03-12T20:57:47.214Z,80.30
2019-03-12T21:00:41.928Z,80.40
2019-03-12T21:03:41.904Z,80.60
2019-03-12T21:06:47.203Z,80.60
2019-03-12T21:10:00.892Z,80.90
2019-03-12T21:13:01.616Z,80.80
2019-03-12T21:15:54.903Z,80.80
2019-03-12T21:18:49.780Z,80.90
2019-03-12T21:22:02.671Z,81.20
2019-03-12T21:24:46.836Z,81.20
2019-03-12T21:27:50.997Z,81.30
2019-03-12T21:30:36.400Z,81.40
2019-03-12T21:33:21.554Z,81.40
2019-03-12T21:36:08.253Z,81.50
2019-03-12T21:38:53.775Z,81.60
2019-03-12T21:41:38.895Z,81.60
2019-03-12T21:44:24.027Z,81.70
2019-03-12T21:47:09.569Z,81.70
2019-03-12T21:49:54.649Z,81.90
2019-03-12T21:52:40.764Z,82.00
2019-03-12T21:55:26.032Z,82.10
2019-03-12T21:58:10.887Z,82.20
2019-03-12T22:00:56.083Z,82.20
2019-03-12T22:03:41.054Z,82.20
2019-03-12T22:06:26.543Z,82.30
2019-03-12T22:11:47.159Z,82.30
2019-03-12T22:14:32.389Z,82.30
2019-03-12T22:17:17.669Z,82.30
2019-03-12T22:20:06.353Z,82.30
2019-03-12T22:22:53.015Z,82.20
2019-03-12T22:25:38.670Z,82.10
2019-03-12T22:28:24.307Z,82.00
2019-03-12T22:31:09.229Z,82.00
2019-03-12T22:33:54.392Z,81.90
2019-03-12T22:36:40.129Z,81.90
2019-03-12T22:39:25.487Z,81.90
2019-03-12T22:42:10.313Z,81.70
2019-03-12T22:44:55.635Z,81.40
2019-03-12T22:47:41.535Z,81.20
2019-03-12T22:50:26.840Z,81.30
2019-03-12T22:53:13.106Z,81.10
2019-03-12T22:55:58.399Z,80.60
2019-03-12T22:58:45.490Z,80.60
2019-03-12T23:01:32.432Z,80.30
2019-03-12T23:04:17.834Z,80.00
2019-03-12T23:07:03.215Z,80.60
2019-03-12T23:09:50.244Z,79.70
2019-03-12T23:12:35.624Z,79.30
2019-03-12T23:15:21.412Z,79.20
2019-03-12T23:18:06.385Z,79.00
2019-03-12T23:20:52.176Z,78.70
2019-03-12T23:23:37.158Z,78.50
2019-03-12T23:26:22.551Z,78.30
2019-03-12T23:29:08.333Z,78.00
2019-03-12T23:31:54.125Z,78.00
2019-03-12T23:34:39.507Z,77.70
2019-03-12T23:37:25.297Z,77.60
2019-03-12T23:40:18.613Z,77.30
2019-03-12T23:43:03.920Z,77.20
2019-03-12T23:45:49.382Z,77.00
2019-03-12T23:48:36.438Z,76.70
2019-03-12T23:51:22.724Z,76.40
2019-03-12T23:54:08.806Z,76.30
2019-03-12T23:56:54.193Z,76.20
2019-03-12T23:59:39.578Z,76.00
